Time;durP1;ratioP1;P1;durP2;ratioP2;P2;SDS_P1;SDS_P2;PMS_P1;PMS_P2;Temp;Humidity;BMP_temperature;BMP_pressure;BME280_temperature;BME280_humidity;BME280_pressure;Samples;Min_cycle;Max_cycle;Signal;HPM_P1;HPM_P2
2021/12/31 00:00:56;;;;;;;1.30;0.95;;;13.50;98.10;;;13.50;65.33;98272.94;5009058;28;20050;-44
2021/12/31 00:03:24;;;;;;;2.47;1.10;;;13.50;97.80;;;13.50;65.50;98279.13;5008383;28;20057;-44
2021/12/31 00:05:51;;;;;;;1.73;1.10;;;13.50;97.80;;;13.49;65.41;98276.63;5009311;28;20041;-45
2021/12/31 00:08:19;;;;;;;1.95;1.00;;;13.50;97.70;;;13.48;65.39;98272.28;5008828;28;20050;-44
2021/12/31 00:10:47;;;;;;;1.60;1.10;;;13.50;97.80;;;13.45;65.26;98276.09;5009249;28;20054;-44
2021/12/31 00:13:15;;;;;;;2.22;1.42;;;13.40;97.70;;;13.42;65.24;98271.09;5009874;28;20356;-45
2021/12/31 00:15:42;;;;;;;3.97;1.52;;;13.40;97.80;;;13.43;65.33;98279.94;5008538;28;20050;-45
2021/12/31 00:18:10;;;;;;;2.63;1.20;;;13.40;97.70;;;13.42;65.43;98278.28;5009666;28;20056;-44
2021/12/31 00:20:40;;;;;;;1.33;1.05;;;13.40;97.60;;;13.44;65.58;98278.97;5009372;28;20056;-46
2021/12/31 00:23:10;;;;;;;4.93;1.20;;;13.50;97.50;;;13.45;65.42;98280.63;5009156;28;20068;-44
2021/12/31 00:25:42;;;;;;;2.30;1.30;;;13.50;97.30;;;13.43;65.29;98279.94;5007432;28;20182;-45
2021/12/31 00:28:12;;;;;;;3.35;1.35;;;13.50;96.90;;;13.43;65.38;98275.44;5008371;28;20056;-47
2021/12/31 00:30:41;;;;;;;1.90;1.00;;;13.40;97.20;;;13.42;65.57;98279.13;5009446;28;20412;-44
2021/12/31 00:33:09;;;;;;;2.22;1.30;;;13.40;97.20;;;13.42;65.36;98272.94;5008362;28;20053;-45
2021/12/31 00:35:38;;;;;;;1.95;1.30;;;13.40;97.20;;;13.43;65.41;98280.78;5008201;28;20060;-47
2021/12/31 00:38:07;;;;;;;2.55;1.00;;;13.40;97.30;;;13.44;65.40;98277.13;5008946;28;20058;-45
2021/12/31 00:40:35;;;;;;;1.90;1.23;;;13.40;97.40;;;13.45;65.43;98275.28;5009089;28;20056;-45
2021/12/31 00:43:06;;;;;;;2.28;1.10;;;13.40;97.20;;;13.44;65.27;98273.63;5007426;28;20296;-46
2021/12/31 00:45:37;;;;;;;2.85;1.30;;;13.40;97.10;;;13.44;65.37;98277.13;5007467;28;20072;-43
2021/12/31 00:48:07;;;;;;;2.10;1.30;;;13.40;97.00;;;13.42;65.44;98271.09;5007724;28;20076;-44
2021/12/31 00:50:36;;;;;;;1.98;1.48;;;13.40;97.20;;;13.39;65.16;98263.38;5008855;28;20052;-44
2021/12/31 00:53:05;;;;;;;2.22;1.05;;;13.40;97.00;;;13.37;65.34;98262.72;5007348;28;20356;-45
2021/12/31 00:55:33;;;;;;;1.98;1.30;;;13.40;97.10;;;13.33;65.37;98267.56;5008191;28;20050;-44
2021/12/31 00:58:01;;;;;;;1.50;0.90;;;13.30;97.10;;;13.30;65.56;98270.56;5007351;28;20248;-44
2021/12/31 01:00:29;;;;;;;1.45;1.00;;;13.30;97.40;;;13.28;65.41;98272.53;5008309;28;20056;-45
2021/12/31 01:02:58;;;;;;;1.75;1.08;;;13.30;97.40;;;13.30;65.32;98283.09;5008378;28;20259;-47
2021/12/31 01:05:26;;;;;;;1.67;0.90;;;13.30;97.30;;;13.28;65.29;98279.69;5008758;28;20364;-46
2021/12/31 01:07:54;;;;;;;1.23;1.13;;;13.30;97.00;;;13.29;65.49;98273.38;5007462;28;20375;-46
2021/12/31 01:10:25;;;;;;;2.38;1.10;;;13.30;97.20;;;13.30;65.36;98272.38;5009391;28;20057;-44
2021/12/31 01:12:54;;;;;;;0.95;0.88;;;13.30;97.20;;;13.28;65.49;98285.91;5007239;28;20068;-45
2021/12/31 01:15:38;;;;;;;1.52;1.10;;;13.30;97.50;;;13.25;65.50;98282.72;5007843;28;20048;-47
2021/12/31 01:20:40;;;;;;;3.13;1.23;;;13.30;97.80;;;13.25;65.69;98278.19;5007842;28;20359;-45
2021/12/31 01:23:09;;;;;;;1.83;1.08;;;13.30;97.70;;;13.21;65.63;98282.19;5007351;28;20055;-48
2021/12/31 01:25:37;;;;;;;2.78;1.23;;;13.20;97.80;;;13.21;65.64;98279.53;5007509;28;20042;-44
2021/12/31 01:28:05;;;;;;;1.23;0.90;;;13.20;98.10;;;13.19;65.96;98285.03;5007013;28;20157;-45
2021/12/31 01:30:33;;;;;;;2.25;1.30;;;13.20;98.20;;;13.20;65.88;98285.88;5007757;28;20045;-46
2021/12/31 01:33:01;;;;;;;2.22;1.27;;;13.20;98.30;;;13.22;66.01;98283.03;5007251;28;20049;-47
2021/12/31 01:35:29;;;;;;;1.83;0.90;;;13.20;98.20;;;13.20;65.80;98285.88;5006828;28;20052;-48
2021/12/31 01:37:56;;;;;;;2.05;1.20;;;13.20;98.50;;;13.19;66.03;98293.06;5007138;28;20274;-46
2021/12/31 01:40:24;;;;;;;2.85;1.05;;;13.10;98.80;;;13.16;65.91;98285.38;5007431;28;20064;-45
2021/12/31 01:42:52;;;;;;;1.73;1.20;;;13.10;98.80;;;13.15;65.98;98285.53;5007087;28;20046;-44
2021/12/31 01:45:21;;;;;;;2.58;1.10;;;13.10;99.00;;;13.11;65.85;98281.50;5006581;28;20054;-48
2021/12/31 01:50:23;;;;;;;1.92;1.25;;;13.00;98.80;;;13.06;65.99;98283.81;5006242;28;20237;-44
2021/12/31 01:52:51;;;;;;;1.88;1.30;;;13.00;99.10;;;12.99;65.94;98283.66;5006559;28;20053;-44
2021/12/31 01:55:22;;;;;;;2.05;1.02;;;12.90;99.30;;;12.98;66.12;98281.94;5006642;28;20064;-44
2021/12/31 01:57:50;;;;;;;1.60;1.00;;;12.90;99.50;;;12.96;66.13;98283.94;5005756;28;20049;-47
2021/12/31 02:00:19;;;;;;;1.88;1.25;;;12.90;99.40;;;12.89;66.21;98283.78;5006496;28;20062;-46
2021/12/31 02:02:48;;;;;;;2.47;1.25;;;12.80;99.70;;;12.85;66.43;98282.38;5006868;28;20064;-48
2021/12/31 02:05:17;;;;;;;1.45;1.15;;;12.80;99.90;;;12.81;66.40;98283.72;5007015;28;20271;-46
2021/12/31 02:07:45;;;;;;;1.40;1.20;;;12.80;99.90;;;12.79;66.41;98285.69;5006996;28;20054;-44
2021/12/31 02:10:13;;;;;;;2.85;1.02;;;12.70;99.90;;;12.74;66.50;98288.88;5007697;28;20256;-44
2021/12/31 02:12:46;;;;;;;1.15;1.00;;;12.60;99.90;;;12.68;66.77;98286.84;5006511;28;20041;-45
2021/12/31 02:15:16;;;;;;;3.80;1.60;;;12.60;99.90;;;12.65;66.49;98283.63;5006570;28;20050;-45
2021/12/31 02:17:47;;;;;;;3.25;1.20;;;12.60;99.90;;;12.59;66.71;98293.94;5006238;28;20301;-46
2021/12/31 02:20:18;;;;;;;1.98;1.17;;;12.60;99.90;;;12.59;66.60;98293.94;5007721;28;20046;-49
2021/12/31 02:22:54;;;;;;;1.88;1.20;;;12.60;99.90;;;12.55;66.73;98286.41;5006591;28;20050;-46
2021/12/31 02:25:24;;;;;;;3.28;1.30;;;12.60;99.90;;;12.49;66.87;98281.72;5009820;28;20127;-45
2021/12/31 02:27:53;;;;;;;2.85;1.40;;;12.50;99.90;;;12.44;67.05;98270.66;5009754;28;20058;-46
2021/12/31 02:30:20;;;;;;;1.63;1.00;;;12.40;99.90;;;12.38;67.21;98272.94;5011727;28;20061;-46
2021/12/31 02:32:48;;;;;;;1.95;1.23;;;12.40;99.90;;;12.35;67.20;98275.13;5011395;28;20052;-47
2021/12/31 02:35:17;;;;;;;3.63;1.60;;;12.30;99.90;;;12.33;67.26;98263.75;5010231;28;20045;-49
2021/12/31 02:37:45;;;;;;;2.15;1.17;;;12.30;99.90;;;12.29;67.45;98276.59;5009084;28;20240;-46
2021/12/31 02:40:19;;;;;;;3.15;1.52;;;12.30;99.90;;;12.25;67.76;98266.38;5010044;28;20050;-47
2021/12/31 02:42:47;;;;;;;2.22;1.40;;;12.20;99.90;;;12.21;67.48;98271.16;5010172;28;20092;-45
2021/12/31 02:45:21;;;;;;;1.92;1.30;;;12.20;99.90;;;12.20;67.54;98272.19;5010136;28;20062;-45
2021/12/31 02:47:49;;;;;;;2.58;1.48;;;12.10;99.90;;;12.16;67.70;98262.81;5009929;28;20046;-45
2021/12/31 02:50:18;;;;;;;2.53;1.27;;;12.10;99.90;;;12.13;67.67;98266.63;5011555;28;20330;-44
2021/12/31 02:52:47;;;;;;;1.67;1.10;;;12.10;99.90;;;12.10;67.86;98263.44;5010088;28;20060;-45
2021/12/31 02:55:16;;;;;;;3.33;1.20;;;12.10;99.90;;;12.06;67.85;98259.38;5010337;28;20049;-47
2021/12/31 02:57:44;;;;;;;1.15;0.95;;;12.10;99.90;;;11.99;67.97;98256.50;5009843;28;20056;-45
2021/12/31 03:00:13;;;;;;;2.10;1.13;;;12.00;99.90;;;11.99;68.25;98257.34;5010845;28;20252;-48
2021/12/31 03:02:41;;;;;;;4.22;1.42;;;12.00;99.90;;;11.96;67.98;98255.00;5009957;28;20226;-45
2021/12/31 03:05:10;;;;;;;1.98;1.40;;;12.00;99.90;;;11.98;68.32;98271.69;5009688;28;20069;-45
2021/12/31 03:07:40;;;;;;;2.15;1.20;;;12.00;99.90;;;12.00;68.26;98263.53;5009713;28;20068;-45
2021/12/31 03:10:09;;;;;;;1.75;1.13;;;12.00;99.90;;;11.98;67.95;98255.69;5009400;28;20441;-46
2021/12/31 03:12:41;;;;;;;2.45;1.45;;;12.00;99.90;;;11.97;67.97;98251.31;5008594;28;20222;-45
2021/12/31 03:15:11;;;;;;;3.55;1.80;;;12.00;99.90;;;11.94;68.48;98254.31;5009933;28;20053;-45
2021/12/31 03:17:41;;;;;;;1.55;1.23;;;11.90;99.90;;;11.93;68.48;98259.81;5009673;28;20251;-45
2021/12/31 03:20:25;;;;;;;1.88;1.35;;;11.90;99.90;;;11.90;68.11;98258.25;5010362;28;20248;-45
2021/12/31 03:22:53;;;;;;;1.95;1.30;;;11.90;99.90;;;11.90;67.96;98263.59;5010380;28;20056;-48
2021/12/31 03:25:20;;;;;;;2.67;1.27;;;11.90;99.90;;;11.87;68.12;98265.72;5009888;28;20058;-44
2021/12/31 03:27:48;;;;;;;2.20;1.67;;;11.80;99.90;;;11.86;68.52;98269.38;5009879;28;20054;-45
2021/12/31 03:30:17;;;;;;;1.65;1.50;;;11.80;99.90;;;11.84;68.34;98272.19;5010787;28;20066;-44
2021/12/31 03:32:45;;;;;;;2.50;1.40;;;11.80;99.90;;;11.83;68.44;98267.88;5009127;28;20046;-44
2021/12/31 03:35:13;;;;;;;4.03;1.38;;;11.80;99.90;;;11.83;68.12;98273.19;5008842;28;20054;-46
2021/12/31 03:37:41;;;;;;;2.00;1.55;;;11.80;99.90;;;11.78;68.13;98270.97;5008785;28;20041;-44
2021/12/31 03:40:10;;;;;;;3.95;1.58;;;11.80;99.90;;;11.75;68.50;98268.63;5009795;28;20049;-45
2021/12/31 03:42:39;;;;;;;1.92;1.50;;;11.70;99.90;;;11.73;68.56;98267.94;5008588;28;20046;-43
2021/12/31 03:45:08;;;;;;;4.10;1.38;;;11.70;99.90;;;11.72;68.46;98266.25;5008567;28;20398;-44
2021/12/31 03:47:36;;;;;;;2.47;1.10;;;11.70;99.90;;;11.72;68.46;98265.44;5010091;28;20288;-46
2021/12/31 03:50:04;;;;;;;2.53;1.42;;;11.70;99.90;;;11.70;68.63;98262.06;5009456;28;20521;-44
2021/12/31 03:52:38;;;;;;;1.52;1.20;;;11.70;99.90;;;11.68;68.78;98264.06;5009042;28;20058;-44
2021/12/31 03:55:10;;;;;;;1.48;1.00;;;11.60;99.90;;;11.65;68.68;98257.22;5009397;28;20352;-45
2021/12/31 03:57:39;;;;;;;3.67;1.30;;;11.70;99.90;;;11.66;68.75;98266.03;5009287;28;20062;-46
2021/12/31 04:00:10;;;;;;;1.85;1.30;;;11.60;99.90;;;11.61;69.02;98264.69;5009433;28;20054;-46
2021/12/31 04:02:38;;;;;;;2.20;1.52;;;11.60;99.90;;;11.65;69.08;98269.69;5008698;28;20049;-47
2021/12/31 04:05:06;;;;;;;5.40;1.73;;;11.60;99.90;;;11.62;69.18;98266.34;5009296;28;20061;-45
2021/12/31 04:07:34;;;;;;;2.33;1.38;;;11.60;99.90;;;11.63;69.02;98264.50;5009072;28;20257;-45
2021/12/31 04:10:04;;;;;;;1.73;1.23;;;11.60;99.90;;;11.61;69.09;98267.34;5009748;28;20087;-44
2021/12/31 04:12:31;;;;;;;4.18;1.50;;;11.60;99.90;;;11.60;68.71;98257.66;5008736;28;20046;-48
2021/12/31 04:14:59;;;;;;;2.58;1.63;;;11.60;99.90;;;11.60;69.11;98254.97;5007869;28;20042;-46
2021/12/31 04:17:27;;;;;;;4.07;1.33;;;11.60;99.90;;;11.57;68.76;98257.13;5008605;28;20064;-45
2021/12/31 04:19:56;;;;;;;2.45;1.48;;;11.60;99.90;;;11.55;68.91;98251.94;5009492;28;20058;-46
2021/12/31 04:22:27;;;;;;;1.85;1.20;;;11.50;99.90;;;11.54;68.87;98260.09;5008832;28;20091;-42
2021/12/31 04:24:55;;;;;;;2.20;1.42;;;11.50;99.90;;;11.52;69.25;98249.59;5007963;28;20045;-42
2021/12/31 04:27:23;;;;;;;2.97;1.52;;;11.50;99.90;;;11.49;69.24;98247.22;5008983;28;20378;-42
2021/12/31 04:29:52;;;;;;;2.88;1.45;;;11.50;99.90;;;11.46;69.23;98250.19;5009027;28;20349;-44
2021/12/31 04:32:22;;;;;;;3.05;1.85;;;11.40;99.90;;;11.46;69.25;98246.66;5006031;28;20054;-42
2021/12/31 04:34:50;;;;;;;3.30;1.48;;;11.40;99.90;;;11.41;69.11;98252.47;5008553;28;20251;-42
2021/12/31 04:37:18;;;;;;;3.42;1.27;;;11.40;99.90;;;11.38;69.21;98242.97;5008479;28;20049;-42
2021/12/31 04:39:46;;;;;;;3.00;1.75;;;11.40;99.90;;;11.36;69.50;98250.28;5006659;28;20288;-42
2021/12/31 04:42:14;;;;;;;1.98;1.50;;;11.40;99.90;;;11.36;69.31;98244.94;5007937;28;20267;-42
2021/12/31 04:44:42;;;;;;;4.35;1.63;;;11.40;99.90;;;11.36;69.36;98241.41;5008492;28;20071;-44
2021/12/31 04:47:09;;;;;;;3.15;1.30;;;11.30;99.90;;;11.34;69.58;98244.25;5007780;28;20358;-42
2021/12/31 04:49:37;;;;;;;3.42;1.60;;;11.30;99.90;;;11.34;69.60;98241.59;5008856;28;20075;-43
2021/12/31 04:52:05;;;;;;;2.17;1.40;;;11.30;99.90;;;11.37;69.32;98253.78;5005293;28;20178;-42
2021/12/31 04:54:33;;;;;;;2.08;1.58;;;11.30;99.90;;;11.34;69.54;98240.72;5008532;28;20271;-42
2021/12/31 04:57:02;;;;;;;2.67;1.42;;;11.30;99.90;;;11.32;69.48;98238.25;5005614;28;20052;-42
2021/12/31 04:59:30;;;;;;;2.47;1.40;;;11.30;99.90;;;11.31;69.66;98241.06;5008507;28;20049;-44
2021/12/31 05:01:58;;;;;;;3.38;1.70;;;11.30;99.90;;;11.29;69.68;98237.69;5008217;28;20060;-42
2021/12/31 05:04:26;;;;;;;2.88;1.50;;;11.30;99.90;;;11.29;69.68;98235.88;5006754;28;20344;-42
2021/12/31 05:06:55;;;;;;;2.17;1.20;;;11.30;99.90;;;11.27;69.37;98232.50;5008132;28;20054;-42
2021/12/31 05:09:23;;;;;;;2.05;1.40;;;11.20;99.90;;;11.27;69.35;98239.69;5009165;28;20053;-42
2021/12/31 05:11:50;;;;;;;2.17;1.55;;;11.20;99.90;;;11.27;69.51;98239.69;5007973;28;20058;-44
2021/12/31 05:14:19;;;;;;;1.95;1.30;;;11.20;99.90;;;11.27;69.52;98237.84;5008282;28;20049;-44
2021/12/31 05:16:47;;;;;;;3.40;1.52;;;11.20;99.90;;;11.27;69.45;98243.19;5007489;28;20379;-42
2021/12/31 05:19:15;;;;;;;2.22;1.35;;;11.20;99.90;;;11.25;69.46;98233.66;5008359;28;20056;-42
2021/12/31 05:21:42;;;;;;;2.30;1.30;;;11.20;99.90;;;11.26;69.58;98235.31;5007330;28;20054;-42
2021/12/31 05:24:10;;;;;;;3.10;1.50;;;11.20;99.90;;;11.26;69.40;98241.47;5007563;28;20321;-42
2021/12/31 05:26:38;;;;;;;2.38;1.45;;;11.20;99.90;;;11.27;69.55;98234.34;5007635;28;20375;-42
2021/12/31 05:29:06;;;;;;;2.67;1.38;;;11.20;99.90;;;11.25;69.33;98231.00;5007658;28;20049;-42
2021/12/31 05:31:34;;;;;;;2.10;1.40;;;11.20;99.90;;;11.26;69.20;98235.31;5008122;28;20055;-43
2021/12/31 05:34:02;;;;;;;2.53;1.65;;;11.20;99.90;;;11.25;69.48;98234.50;5007625;28;20075;-43
2021/12/31 05:36:30;;;;;;;1.77;1.55;;;11.20;99.90;;;11.24;69.70;98238.13;5006840;28;20058;-42
2021/12/31 05:38:58;;;;;;;1.95;1.23;;;11.20;99.90;;;11.25;69.31;98229.16;5007031;28;20349;-42
2021/12/31 05:41:25;;;;;;;1.90;1.27;;;11.20;99.90;;;11.25;69.32;98225.66;5007211;28;20344;-43
2021/12/31 05:43:53;;;;;;;1.93;1.47;;;11.20;99.90;;;11.25;69.44;98223.00;5006008;28;20109;-43
2021/12/31 05:46:21;;;;;;;2.08;1.38;;;11.20;99.90;;;11.26;69.37;98219.34;5006149;28;20072;-42
2021/12/31 05:48:49;;;;;;;3.05;1.10;;;11.20;99.90;;;11.27;69.33;98215.69;5004845;28;20348;-44
2021/12/31 05:51:17;;;;;;;1.93;1.30;;;11.20;99.90;;;11.27;69.63;98221.84;5006865;28;20046;-44
2021/12/31 05:53:45;;;;;;;1.48;0.90;;;11.20;99.90;;;11.28;69.23;98217.34;5007426;28;20046;-42
2021/12/31 05:56:13;;;;;;;2.13;1.38;;;11.20;99.90;;;11.29;69.51;98219.03;5006670;28;20064;-42
2021/12/31 05:58:40;;;;;;;3.10;1.48;;;11.20;99.90;;;11.30;69.26;98223.38;5007001;28;20050;-42
2021/12/31 06:01:08;;;;;;;2.55;1.02;;;11.20;99.90;;;11.30;69.16;98218.03;5007160;28;20068;-42
2021/12/31 06:03:36;;;;;;;3.08;1.05;;;11.20;99.90;;;11.30;69.07;98220.69;5007024;28;20244;-42
2021/12/31 06:06:04;;;;;;;3.17;1.30;;;11.20;99.90;;;11.32;69.45;98216.06;5006742;28;20371;-42
2021/12/31 06:08:32;;;;;;;2.55;1.35;;;11.20;99.90;;;11.30;69.18;98226.91;5006167;28;20050;-42
2021/12/31 06:11:00;;;;;;;2.28;1.38;;;11.20;99.90;;;11.29;69.56;98221.72;5006582;28;20049;-42
2021/12/31 06:13:28;;;;;;;2.22;1.17;;;11.20;99.90;;;11.28;69.00;98222.69;5006918;28;20240;-43
2021/12/31 06:15:59;;;;;;;2.30;1.27;;;11.20;99.90;;;11.28;69.54;98220.84;5006795;28;20050;-42
2021/12/31 06:18:27;;;;;;;2.53;1.20;;;11.20;99.90;;;11.27;69.35;98218.34;5005419;28;20370;-42
2021/12/31 06:20:55;;;;;;;1.98;1.40;;;11.20;99.90;;;11.27;69.25;98227.19;5007193;28;20366;-42
2021/12/31 06:23:23;;;;;;;1.80;1.15;;;11.10;99.90;;;11.26;68.92;98225.50;5006211;28;20057;-43
2021/12/31 06:25:51;;;;;;;2.73;1.20;;;11.10;99.90;;;11.25;69.15;98223.84;5005060;28;20064;-42
2021/12/31 06:28:19;;;;;;;2.87;1.43;;;11.10;99.90;;;11.22;69.15;98235.66;5007847;28;20064;-42
2021/12/31 06:30:46;;;;;;;1.48;0.93;;;11.00;99.90;;;11.20;69.21;98231.44;5007196;28;20058;-42
2021/12/31 06:33:14;;;;;;;2.85;1.63;;;11.00;99.90;;;11.18;68.92;98236.91;5006466;28;20064;-42
2021/12/31 06:35:42;;;;;;;2.67;1.20;;;11.00;99.90;;;11.16;68.97;98224.72;5006125;28;20049;-42
2021/12/31 06:38:11;;;;;;;2.67;2.03;;;11.00;99.90;;;11.12;69.25;98229.53;5007076;28;20076;-42
2021/12/31 06:40:39;;;;;;;2.17;1.10;;;10.90;99.90;;;11.09;69.09;98221.84;5005947;28;20054;-42
2021/12/31 06:43:07;;;;;;;1.77;1.40;;;10.90;99.90;;;11.06;69.36;98234.63;5006299;28;20058;-42
2021/12/31 06:45:35;;;;;;;2.00;1.30;;;10.80;99.90;;;10.99;69.38;98224.56;5006560;28;20058;-42
2021/12/31 06:48:04;;;;;;;1.73;1.30;;;10.70;99.90;;;10.97;69.15;98231.00;5007039;28;20066;-42
2021/12/31 06:50:32;;;;;;;2.67;1.23;;;10.70;99.90;;;10.91;69.08;98237.78;5007429;28;20060;-42
2021/12/31 06:53:01;;;;;;;2.30;1.23;;;10.60;99.90;;;10.90;69.32;98243.28;5006090;28;20057;-42
2021/12/31 06:55:30;;;;;;;2.85;1.55;;;10.60;99.90;;;10.86;69.25;98242.72;5006213;28;20041;-42
2021/12/31 06:57:59;;;;;;;3.07;1.80;;;10.60;99.90;;;10.83;69.43;98233.19;5007415;28;20223;-42
2021/12/31 07:00:27;;;;;;;4.77;1.80;;;10.60;99.90;;;10.81;69.20;98240.50;5008327;28;20048;-42
2021/12/31 07:03:12;;;;;;;2.93;1.77;;;10.50;99.90;;;10.78;68.96;98239.97;5005817;28;20050;-42
2021/12/31 07:05:42;;;;;;;3.17;1.70;;;10.50;99.90;;;10.77;69.54;98240.94;5006538;28;20065;-43
2021/12/31 07:08:10;;;;;;;2.43;1.57;;;10.50;99.90;;;10.73;69.26;98239.56;5005952;28;20054;-42
2021/12/31 07:10:39;;;;;;;3.13;1.50;;;10.50;99.90;;;10.68;69.44;98247.16;5007973;28;20252;-42
2021/12/31 07:13:13;;;;;;;5.07;1.50;;;10.50;99.90;;;10.62;69.49;98246.78;5009482;28;20050;-42
2021/12/31 07:15:48;;;;;;;1.88;1.27;;;10.40;99.90;;;10.58;69.49;98242.69;5010865;28;20050;-43
2021/12/31 07:18:19;;;;;;;6.47;2.27;;;10.40;99.90;;;10.52;69.58;98239.78;5010134;28;20226;-42
2021/12/31 07:20:47;;;;;;;10.50;3.30;;;10.30;99.90;;;10.49;70.12;98246.25;5009018;28;20056;-42
2021/12/31 07:23:20;;;;;;;7.17;3.30;;;10.20;99.90;;;10.48;70.21;98241.91;5009711;28;20218;-42
2021/12/31 07:25:48;;;;;;;21.17;8.33;;;10.30;99.90;;;10.47;69.97;98236.72;5009151;28;20058;-42
2021/12/31 07:28:16;;;;;;;33.43;15.03;;;10.30;99.90;;;10.46;69.94;98227.91;5009546;28;20070;-42
2021/12/31 07:30:47;;;;;;;57.60;22.63;;;10.20;99.90;;;10.44;70.32;98221.88;5010708;28;20076;-42
2021/12/31 07:33:21;;;;;;;21.07;9.10;;;10.20;99.90;;;10.42;70.21;98232.69;5008667;28;20066;-42
2021/12/31 07:35:51;;;;;;;8.10;4.30;;;10.20;99.90;;;10.43;70.29;98239.69;5009805;28;20060;-43
2021/12/31 07:38:35;;;;;;;7.60;2.90;;;10.20;99.90;;;10.43;70.38;98244.19;5008803;28;20049;-41
2021/12/31 07:41:04;;;;;;;4.35;1.95;;;10.20;99.90;;;10.43;70.62;98253.00;5008990;28;20046;-44
2021/12/31 07:43:33;;;;;;;4.30;1.80;;;10.20;99.90;;;10.43;70.20;98247.69;5008155;28;20072;-44
2021/12/31 07:46:01;;;;;;;3.37;2.10;;;10.20;99.90;;;10.44;70.37;98246.69;5007649;28;20060;-46
2021/12/31 07:48:29;;;;;;;3.20;1.87;;;10.20;99.90;;;10.46;70.33;98245.72;5008784;28;20076;-44
2021/12/31 07:50:57;;;;;;;2.77;1.63;;;10.30;99.90;;;10.45;70.65;98242.22;5010257;28;20081;-44
2021/12/31 07:53:24;;;;;;;7.23;1.93;;;10.30;99.90;;;10.44;70.51;98241.34;5006382;28;20049;-45
2021/12/31 07:55:53;;;;;;;4.20;1.67;;;10.30;99.90;;;10.44;70.42;98246.69;5008273;28;20064;-44
2021/12/31 07:58:21;;;;;;;3.07;1.80;;;10.30;99.90;;;10.45;70.44;98247.53;5007866;28;20068;-44
2021/12/31 08:00:49;;;;;;;4.57;1.87;;;10.30;99.90;;;10.45;70.50;98252.88;5009396;28;20068;-44
2021/12/31 08:03:17;;;;;;;3.67;1.77;;;10.20;99.90;;;10.44;70.50;98249.34;5008835;28;20060;-44
2021/12/31 08:05:45;;;;;;;2.27;1.40;;;10.20;99.90;;;10.43;70.37;98262.81;5008915;28;20064;-44
2021/12/31 08:08:13;;;;;;;2.70;1.50;;;10.20;99.90;;;10.42;70.70;98266.44;5009352;28;20057;-43
2021/12/31 08:10:41;;;;;;;3.40;1.80;;;10.20;99.90;;;10.39;70.85;98267.59;5008596;28;20344;-43
2021/12/31 08:13:25;;;;;;;2.55;1.75;;;10.20;99.90;;;10.37;70.59;98255.38;5008225;28;20062;-43
2021/12/31 08:15:54;;;;;;;3.13;1.80;;;10.20;99.90;;;10.37;70.52;98266.91;5008261;28;20042;-43
2021/12/31 08:18:22;;;;;;;2.50;1.90;;;10.20;99.90;;;10.37;70.68;98266.91;5008929;28;20049;-44
2021/12/31 08:20:50;;;;;;;4.73;1.73;;;10.20;99.90;;;10.36;71.02;98270.53;5008906;28;20356;-44
2021/12/31 08:23:18;;;;;;;2.30;1.83;;;10.20;99.90;;;10.36;70.79;98267.88;5006381;28;20054;-46
2021/12/31 08:25:46;;;;;;;5.50;2.17;;;10.20;99.90;;;10.33;71.00;98269.97;5008929;28;20057;-45
2021/12/31 08:28:14;;;;;;;2.63;1.83;;;10.10;99.90;;;10.32;70.62;98263.81;5008199;28;20225;-44
2021/12/31 08:30:42;;;;;;;3.30;1.80;;;10.10;99.90;;;10.32;70.94;98265.66;5009240;28;20255;-43
2021/12/31 08:33:10;;;;;;;2.63;2.00;;;10.10;99.90;;;10.28;70.87;98262.41;5008573;28;20356;-43
2021/12/31 08:35:38;;;;;;;2.20;1.70;;;10.10;99.90;;;10.28;70.72;98256.25;5008161;28;20093;-44
2021/12/31 08:38:06;;;;;;;3.90;1.70;;;10.10;99.90;;;10.21;70.80;98258.63;5008259;28;20050;-45
2021/12/31 08:40:33;;;;;;;3.30;1.93;;;10.00;99.90;;;10.19;71.28;98250.78;5007921;28;20041;-44
2021/12/31 08:43:02;;;;;;;2.57;2.03;;;10.00;99.90;;;10.17;71.03;98258.06;5007830;28;20244;-45
2021/12/31 08:45:33;;;;;;;4.37;3.00;;;10.00;99.90;;;10.18;71.28;98250.94;5007671;28;20096;-44
2021/12/31 08:48:03;;;;;;;4.07;2.80;;;10.00;99.90;;;10.21;71.42;98250.66;5007461;28;20057;-44
2021/12/31 08:50:32;;;;;;;2.80;1.80;;;10.10;99.90;;;10.21;70.93;98240.84;5006922;28;20054;-44
2021/12/31 08:53:01;;;;;;;4.13;2.07;;;10.10;99.90;;;10.23;70.81;98246.00;5007422;28;20072;-42
2021/12/31 08:55:29;;;;;;;3.17;2.43;;;10.10;99.90;;;10.19;71.09;98247.28;5008575;28;20037;-43
2021/12/31 08:57:57;;;;;;;2.57;2.07;;;10.00;99.90;;;10.19;71.21;98244.63;5007682;28;20050;-45
2021/12/31 09:00:24;;;;;;;3.30;2.23;;;10.00;99.90;;;10.15;71.32;98241.41;5012080;28;20248;-43
2021/12/31 09:02:52;;;;;;;3.30;2.67;;;10.00;99.90;;;10.12;71.28;98238.19;5017013;28;20061;-46
2021/12/31 09:05:22;;;;;;;3.93;2.50;;;9.90;99.90;;;10.08;71.58;98227.03;5016360;28;20054;-41
2021/12/31 09:07:51;;;;;;;3.10;2.60;;;9.90;99.90;;;10.12;71.36;98232.88;5015067;28;20061;-44
2021/12/31 09:10:20;;;;;;;3.33;2.20;;;9.90;99.90;;;10.12;71.06;98236.41;5017205;28;20244;-45
2021/12/31 09:12:50;;;;;;;3.17;1.83;;;10.00;99.90;;;10.16;71.30;98229.81;5016501;28;20356;-46
2021/12/31 09:15:18;;;;;;;3.17;1.97;;;10.00;99.90;;;10.16;71.50;98231.63;5015819;28;20046;-45
2021/12/31 09:17:47;;;;;;;3.43;2.20;;;10.00;99.90;;;10.14;71.21;98229.09;5016670;28;20067;-44
2021/12/31 09:20:15;;;;;;;4.23;2.40;;;10.00;99.90;;;10.12;71.39;98232.88;5022924;28;20048;-46
2021/12/31 09:22:45;;;;;;;3.73;2.50;;;10.00;99.90;;;10.10;71.39;98229.53;5026805;28;20287;-47
2021/12/31 09:25:15;;;;;;;3.57;2.30;;;9.90;99.90;;;10.09;71.37;98228.69;5027310;28;20235;-44
2021/12/31 09:27:43;;;;;;;3.50;2.53;;;9.90;99.90;;;10.09;71.52;98222.53;5028291;28;20065;-44
2021/12/31 09:30:12;;;;;;;3.63;2.57;;;9.90;99.90;;;10.13;71.51;98227.41;5026248;28;20049;-47
2021/12/31 09:32:41;;;;;;;3.33;2.17;;;10.00;99.90;;;10.13;71.50;98221.25;5026553;28;20130;-44
2021/12/31 09:35:10;;;;;;;3.93;2.33;;;10.00;99.90;;;10.12;71.76;98232.88;5026939;28;20048;-46
2021/12/31 09:37:39;;;;;;;3.40;2.40;;;10.00;99.90;;;10.11;71.54;98226.72;5026343;28;20041;-46
2021/12/31 09:40:08;;;;;;;2.90;2.03;;;10.00;99.90;;;10.15;72.00;98235.25;5025377;28;20063;-47
2021/12/31 09:42:36;;;;;;;2.93;2.17;;;10.00;99.90;;;10.16;72.00;98235.13;5027198;28;20053;-45
2021/12/31 09:45:05;;;;;;;2.90;2.10;;;10.10;99.90;;;10.15;71.62;98230.78;5026437;28;20343;-44
2021/12/31 09:47:33;;;;;;;3.13;2.10;;;10.00;99.90;;;10.15;71.99;98236.09;5025557;28;20057;-48
2021/12/31 09:50:00;;;;;;;2.90;2.20;;;10.00;99.90;;;10.15;71.82;98237.94;5026358;28;20386;-46
2021/12/31 09:52:32;;;;;;;5.47;3.07;;;10.10;99.90;;;10.15;72.44;98243.25;5026723;28;20067;-45
2021/12/31 09:55:02;;;;;;;4.57;2.47;;;10.10;99.90;;;10.17;72.00;98251.91;5027591;28;20053;-48
2021/12/31 09:57:30;;;;;;;3.53;2.20;;;10.10;99.90;;;10.18;71.80;98237.66;5026321;28;20057;-44
2021/12/31 10:00:02;;;;;;;3.33;2.10;;;10.10;99.90;;;10.19;71.88;98242.81;5027445;28;20374;-47
2021/12/31 10:02:33;;;;;;;3.05;2.33;;;10.10;99.90;;;10.18;72.18;98241.13;5026754;28;20034;-50
2021/12/31 10:05:04;;;;;;;3.73;2.20;;;10.20;99.90;;;10.21;72.41;98240.84;5026283;28;20825;-46
2021/12/31 10:07:33;;;;;;;2.83;2.00;;;10.20;99.90;;;10.25;72.42;98244.03;5025046;28;20068;-47
2021/12/31 10:10:12;;;;;;;2.80;2.03;;;10.20;99.90;;;10.31;72.42;98234.69;5027797;28;20059;-46
2021/12/31 10:12:49;;;;;;;4.23;1.97;;;10.30;99.90;;;10.36;72.06;98241.25;5026413;28;20063;-46
2021/12/31 10:15:21;;;;;;;3.37;2.20;;;10.30;99.90;;;10.37;72.34;98234.09;5026470;28;20056;-47
2021/12/31 10:17:48;;;;;;;3.37;2.33;;;10.30;99.90;;;10.40;72.44;98237.31;5026933;28;20051;-45
2021/12/31 10:20:17;;;;;;;3.47;2.10;;;10.30;99.90;;;10.45;72.24;98231.56;5025888;28;20061;-45
2021/12/31 10:22:46;;;;;;;3.55;2.17;;;10.40;99.90;;;10.49;72.23;98227.63;5026026;28;20047;-45
2021/12/31 10:25:25;;;;;;;3.53;2.27;;;10.50;99.90;;;10.52;72.62;98223.81;5025381;28;20053;-46
2021/12/31 10:28:12;;;;;;;3.37;2.60;;;10.50;99.90;;;10.53;72.83;98221.03;5026548;28;20068;-44
2021/12/31 10:30:40;;;;;;;3.10;2.30;;;10.50;99.90;;;10.59;72.43;98225.75;5026451;28;20064;-45
2021/12/31 10:33:09;;;;;;;4.10;2.43;;;10.60;99.90;;;10.64;72.58;98211.97;5026076;28;20358;-45